Accueil
METAR-TAF:

METAR-TAF

Aéroports :

Ashland, Kentucky, États-Unis

latitude: 38-33-16N, longitude: 082-44-17W, altitude: 166 m

Observation

Le bulletin a été fait il y a 40 minutes, à 19:17 UTC
Vent 5 kt de ouest
Température 27°C
Humidité 79%
Pression 1010 hPa
Visibilité: 16.1 km
Quelques nuages à une hauteur de 2800 ft
Nuages épars à une hauteur de 3500 ft
Nuages fragmentés à une hauteur de 4700 ft
orage à proximité, pluie faible

METAR: KDWU 101917Z AUTO 26005KT 10SM VCTS -RA FEW028 SCT035 BKN047 27/23 A2983 RMK AO2 LTG DSNT NE AND SW TSB11RAB10 PNO $

Heure: 15:57 (19:57 UTC)


TAF: absent

Observations et prévisions météorologiques de plus de 4000 aéroports (messages METAR et TAF).

Les stations disponibles sont représentées par des disques jaunes et rouges sur la carte.

Passer la souris dessus pour voir le nom de la station.

Cliquer dessus pour voir les observations et prévisions météorologiques.

Pour changer de carte: cliquez sur les boutons verts avec une croix noire pour zoomer, sur le bouton vert avec un tiret pour effectuer un zoom arrière, ou sur les flèches vertes pour les cartes adjacentes.


METAR-TAF: